createdAt,value
2018-12-05T00:00:54.546Z,14.20
2018-12-05T00:01:54.725Z,11.40
2018-12-05T00:02:54.898Z,13.70
2018-12-05T00:03:55.077Z,13.20
2018-12-05T00:04:55.254Z,10.30
2018-12-05T00:05:55.436Z,9.10
2018-12-05T00:06:55.648Z,12.30
2018-12-05T00:07:55.824Z,12.00
2018-12-05T00:08:56.001Z,11.30
2018-12-05T00:09:56.187Z,11.20
2018-12-05T00:10:56.356Z,11.80
2018-12-05T00:11:56.549Z,9.50
2018-12-05T00:12:56.725Z,10.50
2018-12-05T00:13:56.903Z,10.70
2018-12-05T00:14:57.082Z,11.60
2018-12-05T00:15:57.270Z,11.60
2018-12-05T00:16:57.451Z,13.60
2018-12-05T00:17:57.625Z,12.10
2018-12-05T00:18:57.802Z,10.00
2018-12-05T00:19:57.980Z,11.60
2018-12-05T00:20:58.162Z,12.90
2018-12-05T00:21:58.340Z,11.00
2018-12-05T00:22:58.513Z,10.30
2018-12-05T00:23:58.766Z,11.50
2018-12-05T00:24:58.873Z,12.70
2018-12-05T00:25:59.060Z,9.70
2018-12-05T00:26:59.233Z,8.00
2018-12-05T00:27:59.414Z,9.40
2018-12-05T00:28:59.594Z,10.10
2018-12-05T00:29:59.774Z,8.10
2018-12-05T00:30:59.960Z,10.40
2018-12-05T00:32:00.138Z,10.90
2018-12-05T00:33:00.317Z,9.10
2018-12-05T00:34:00.505Z,8.50
2018-12-05T00:35:00.683Z,7.70
2018-12-05T00:36:00.871Z,8.50
2018-12-05T00:37:01.046Z,7.70
2018-12-05T00:38:01.221Z,7.30
2018-12-05T00:39:01.400Z,7.60
2018-12-05T00:40:01.576Z,7.20
2018-12-05T00:41:01.753Z,7.90
2018-12-05T00:42:01.933Z,7.50
2018-12-05T00:43:02.117Z,7.20
2018-12-05T00:44:02.294Z,7.00
2018-12-05T00:45:02.475Z,7.20
2018-12-05T00:46:02.653Z,7.00
2018-12-05T00:47:02.838Z,8.00
2018-12-05T00:48:03.014Z,7.80
2018-12-05T00:49:03.190Z,7.40
2018-12-05T00:50:03.368Z,8.50
2018-12-05T00:51:03.553Z,7.80
2018-12-05T00:52:03.734Z,8.10
2018-12-05T00:53:03.912Z,8.20
2018-12-05T00:54:04.095Z,6.50
2018-12-05T00:55:04.270Z,8.00
2018-12-05T00:56:04.463Z,8.30
2018-12-05T00:57:04.642Z,7.40
2018-12-05T00:58:04.829Z,7.80
2018-12-05T00:59:05.005Z,9.00
2018-12-05T01:00:05.184Z,7.00
2018-12-05T01:01:05.362Z,7.80
2018-12-05T01:02:05.536Z,8.70
2018-12-05T01:03:05.715Z,8.80
2018-12-05T01:04:05.897Z,7.90
2018-12-05T01:05:06.072Z,6.90
2018-12-05T01:06:06.249Z,7.50
2018-12-05T01:07:06.428Z,6.80
2018-12-05T01:08:06.605Z,7.80
2018-12-05T01:09:06.792Z,7.20
2018-12-05T01:10:06.968Z,7.40
2018-12-05T01:11:07.146Z,8.00
2018-12-05T01:12:07.334Z,8.20
2018-12-05T01:13:07.511Z,8.20
2018-12-05T01:14:07.692Z,7.80
2018-12-05T01:15:07.863Z,8.00
2018-12-05T01:16:08.042Z,7.20
2018-12-05T01:17:08.221Z,6.60
2018-12-05T01:18:08.407Z,6.70
2018-12-05T01:19:08.595Z,6.80
2018-12-05T01:20:08.764Z,6.50
2018-12-05T01:21:08.949Z,6.00
2018-12-05T01:22:09.130Z,6.40
2018-12-05T01:23:09.303Z,7.20
2018-12-05T01:24:09.493Z,7.00
2018-12-05T01:25:09.670Z,6.70
2018-12-05T01:26:09.848Z,6.60
2018-12-05T01:27:10.028Z,7.40
2018-12-05T01:28:10.200Z,10.90
2018-12-05T01:29:10.374Z,9.30
2018-12-05T01:30:10.561Z,8.00
2018-12-05T01:31:10.738Z,7.60
2018-12-05T01:32:10.920Z,7.80
2018-12-05T01:33:11.094Z,7.60
2018-12-05T01:34:11.279Z,6.60
2018-12-05T01:35:11.460Z,7.00
2018-12-05T01:36:11.639Z,6.80
2018-12-05T01:37:11.810Z,7.20
2018-12-05T01:38:11.991Z,7.20
2018-12-05T01:39:12.170Z,8.50
2018-12-05T01:40:12.345Z,7.30
2018-12-05T01:41:12.526Z,7.80
2018-12-05T01:42:12.701Z,8.80
2018-12-05T01:43:12.879Z,9.10
2018-12-05T01:44:13.059Z,8.90
2018-12-05T01:45:13.235Z,10.20
2018-12-05T01:46:13.414Z,10.50
2018-12-05T01:47:13.593Z,9.10
2018-12-05T01:48:13.773Z,8.50
2018-12-05T01:49:13.950Z,8.70
2018-12-05T01:50:14.139Z,8.00
2018-12-05T01:51:14.313Z,7.40
2018-12-05T01:52:14.495Z,7.20
2018-12-05T01:53:14.676Z,7.00
2018-12-05T01:54:14.857Z,7.90
2018-12-05T01:55:15.037Z,7.60
2018-12-05T01:56:15.217Z,7.00
2018-12-05T01:57:15.394Z,7.80
2018-12-05T01:58:15.574Z,9.90
2018-12-05T01:59:15.752Z,11.30
2018-12-05T02:00:15.942Z,13.50
2018-12-05T02:01:16.118Z,11.90
2018-12-05T02:02:16.297Z,10.40
2018-12-05T02:03:16.480Z,9.50
2018-12-05T02:04:16.657Z,10.60
2018-12-05T02:05:16.830Z,12.30
2018-12-05T02:06:17.011Z,12.30
2018-12-05T02:07:17.189Z,9.20
2018-12-05T02:08:17.367Z,8.10
2018-12-05T02:09:17.552Z,10.40
2018-12-05T02:10:17.742Z,12.30
2018-12-05T02:11:17.924Z,11.70
2018-12-05T02:12:18.099Z,12.30
2018-12-05T02:13:18.280Z,11.30
2018-12-05T02:14:18.459Z,10.00
2018-12-05T02:15:18.631Z,9.40
2018-12-05T02:16:18.812Z,10.40
2018-12-05T02:17:18.995Z,8.90
2018-12-05T02:18:19.179Z,11.70
2018-12-05T02:19:19.358Z,10.20
2018-12-05T02:20:19.531Z,9.90
2018-12-05T02:21:19.715Z,9.90
2018-12-05T02:22:19.890Z,8.80
2018-12-05T02:23:20.063Z,8.30
2018-12-05T02:24:20.240Z,7.50
2018-12-05T02:25:20.427Z,8.20
2018-12-05T02:26:20.609Z,10.00
2018-12-05T02:27:20.873Z,9.00
2018-12-05T02:28:20.967Z,9.50
2018-12-05T02:29:21.151Z,8.60
2018-12-05T02:30:21.328Z,8.40
2018-12-05T02:31:21.508Z,7.80
2018-12-05T02:32:21.681Z,8.30
2018-12-05T02:33:21.868Z,7.60
2018-12-05T02:34:22.041Z,9.00
2018-12-05T02:35:22.229Z,10.20
2018-12-05T02:36:22.412Z,7.70
2018-12-05T02:37:22.587Z,8.40
2018-12-05T02:38:22.763Z,8.40
2018-12-05T02:39:22.938Z,10.60
2018-12-05T02:40:23.126Z,12.80
2018-12-05T02:41:23.304Z,11.00
2018-12-05T02:42:23.486Z,10.20
2018-12-05T02:43:23.666Z,11.30
2018-12-05T02:44:23.851Z,9.70
2018-12-05T02:45:24.016Z,11.30
2018-12-05T02:46:24.201Z,11.10
2018-12-05T02:47:24.378Z,8.70
2018-12-05T02:48:24.548Z,11.10
2018-12-05T02:49:24.728Z,13.20
2018-12-05T02:50:24.911Z,10.20
2018-12-05T02:51:25.087Z,9.00
2018-12-05T02:52:25.266Z,11.50
2018-12-05T02:53:25.444Z,19.20
2018-12-05T02:54:25.628Z,16.00
2018-12-05T02:55:25.807Z,8.50
2018-12-05T02:56:25.986Z,8.00
2018-12-05T02:57:26.166Z,14.50
2018-12-05T02:58:26.344Z,11.20
2018-12-05T02:59:26.525Z,9.40
2018-12-05T03:00:26.706Z,11.70
2018-12-05T03:01:26.883Z,11.30
2018-12-05T03:02:27.055Z,11.90
2018-12-05T03:03:27.237Z,12.50
2018-12-05T03:04:27.411Z,14.80
2018-12-05T03:05:27.590Z,13.40
2018-12-05T03:06:27.769Z,10.80
2018-12-05T03:07:27.947Z,8.10
2018-12-05T03:08:28.124Z,9.30
2018-12-05T03:09:28.309Z,13.30
2018-12-05T03:10:28.485Z,10.90
2018-12-05T03:11:28.661Z,8.10
2018-12-05T03:12:28.847Z,7.90
2018-12-05T03:13:29.022Z,9.30
2018-12-05T03:14:29.199Z,9.20
2018-12-05T03:15:29.374Z,8.80
2018-12-05T03:16:29.559Z,8.40
2018-12-05T03:17:29.739Z,8.40
2018-12-05T03:18:29.918Z,8.90
2018-12-05T03:19:30.092Z,7.80
2018-12-05T03:20:30.272Z,9.50
2018-12-05T03:21:30.450Z,8.80
2018-12-05T03:22:30.628Z,11.20
2018-12-05T03:23:30.811Z,9.70
2018-12-05T03:24:30.985Z,9.30
2018-12-05T03:25:31.170Z,8.70
2018-12-05T03:26:31.343Z,7.50
2018-12-05T03:27:31.517Z,8.60
2018-12-05T03:28:31.697Z,7.60
2018-12-05T03:29:31.873Z,7.40
2018-12-05T03:30:32.055Z,7.20
2018-12-05T03:31:32.228Z,6.90
2018-12-05T03:32:32.411Z,7.50
2018-12-05T03:33:32.580Z,6.80
2018-12-05T03:34:32.756Z,7.10
2018-12-05T03:35:32.945Z,7.30
2018-12-05T03:36:33.128Z,7.30
2018-12-05T03:37:33.310Z,6.70
2018-12-05T03:38:33.483Z,6.80
2018-12-05T03:39:33.656Z,7.50
2018-12-05T03:40:33.850Z,7.50
2018-12-05T03:41:34.024Z,7.70
2018-12-05T03:42:34.203Z,7.60
2018-12-05T03:43:34.384Z,6.50
2018-12-05T03:44:34.563Z,7.10
2018-12-05T03:45:34.741Z,7.80
2018-12-05T03:46:34.921Z,7.10
2018-12-05T03:47:35.110Z,7.60
2018-12-05T03:48:35.279Z,7.90
2018-12-05T03:49:35.457Z,7.90
2018-12-05T03:50:35.646Z,6.40
2018-12-05T03:51:35.820Z,8.30
2018-12-05T03:52:36.004Z,8.60
2018-12-05T03:53:36.177Z,6.60
2018-12-05T03:54:36.379Z,6.80
2018-12-05T03:55:36.545Z,6.70
2018-12-05T03:56:36.724Z,8.90
2018-12-05T03:57:36.902Z,9.80
2018-12-05T03:58:37.095Z,8.00
2018-12-05T03:59:37.264Z,8.70
2018-12-05T04:00:37.434Z,8.70
2018-12-05T04:01:37.613Z,9.50
2018-12-05T04:02:37.796Z,8.40
2018-12-05T04:03:37.973Z,7.90
2018-12-05T04:04:38.160Z,8.30
2018-12-05T04:05:38.346Z,9.50
2018-12-05T04:06:38.521Z,9.00
2018-12-05T04:07:38.700Z,8.50
2018-12-05T04:08:38.888Z,8.50
2018-12-05T04:09:39.059Z,8.20
2018-12-05T04:10:39.237Z,8.00
2018-12-05T04:11:39.416Z,7.80
2018-12-05T04:12:40.799Z,8.60
2018-12-05T04:13:39.775Z,8.50
2018-12-05T04:14:39.945Z,7.50
2018-12-05T04:15:40.132Z,7.20
2018-12-05T04:16:40.304Z,7.10
2018-12-05T04:17:40.488Z,6.80
2018-12-05T04:18:40.654Z,7.70
2018-12-05T04:19:40.840Z,7.10
2018-12-05T04:20:41.020Z,7.50
2018-12-05T04:21:41.199Z,7.10
2018-12-05T04:22:41.373Z,8.20
2018-12-05T04:23:41.558Z,6.90
2018-12-05T04:24:41.739Z,8.00
2018-12-05T04:25:41.922Z,7.90
2018-12-05T04:26:42.094Z,8.10
2018-12-05T04:27:42.272Z,8.00
2018-12-05T04:28:42.451Z,9.50
2018-12-05T04:29:42.634Z,11.90
2018-12-05T04:30:42.810Z,9.50
2018-12-05T04:31:42.995Z,10.40
2018-12-05T04:32:43.175Z,9.20
2018-12-05T04:33:43.357Z,9.90
2018-12-05T04:34:43.529Z,10.10
2018-12-05T04:35:43.711Z,8.40
2018-12-05T04:36:43.893Z,8.40
2018-12-05T04:37:44.074Z,8.00
2018-12-05T04:38:44.254Z,7.70
2018-12-05T04:39:44.428Z,7.80
2018-12-05T04:40:44.604Z,7.60
2018-12-05T04:41:44.786Z,7.40
2018-12-05T04:42:44.964Z,6.90
2018-12-05T04:43:45.136Z,8.20
2018-12-05T04:44:45.318Z,7.80
2018-12-05T04:45:45.491Z,7.80
2018-12-05T04:46:45.669Z,7.70
2018-12-05T04:47:45.853Z,8.30
2018-12-05T04:48:46.025Z,7.50
2018-12-05T04:49:46.199Z,7.20
2018-12-05T04:50:46.383Z,7.10
2018-12-05T04:51:46.560Z,7.70
2018-12-05T04:52:46.744Z,7.00
2018-12-05T04:53:46.924Z,7.50
2018-12-05T04:54:47.102Z,7.50
2018-12-05T04:55:47.283Z,8.10
2018-12-05T04:56:47.457Z,7.80
2018-12-05T04:57:47.634Z,8.60
2018-12-05T04:58:47.816Z,8.80
2018-12-05T04:59:48.005Z,8.10
2018-12-05T05:00:48.171Z,7.70
2018-12-05T05:01:48.348Z,7.80
2018-12-05T05:02:48.612Z,8.50
2018-12-05T05:03:48.706Z,8.40
2018-12-05T05:04:48.893Z,8.00
2018-12-05T05:05:49.074Z,8.50
2018-12-05T05:06:49.253Z,8.30
2018-12-05T05:07:49.432Z,8.30
2018-12-05T05:08:49.610Z,8.20
2018-12-05T05:09:49.801Z,7.70
2018-12-05T05:10:49.962Z,7.70
2018-12-05T05:11:50.145Z,9.20
2018-12-05T05:12:50.315Z,8.40
2018-12-05T05:13:50.495Z,8.60
2018-12-05T05:14:50.677Z,8.10
2018-12-05T05:15:50.856Z,9.40
2018-12-05T05:16:51.036Z,9.00
2018-12-05T05:17:51.214Z,8.40
2018-12-05T05:18:51.387Z,9.50
2018-12-05T05:19:51.567Z,9.30
2018-12-05T05:20:51.745Z,9.10
2018-12-05T05:21:51.927Z,8.30
2018-12-05T05:22:52.107Z,9.10
2018-12-05T05:23:52.281Z,8.40
2018-12-05T05:24:52.462Z,8.90
2018-12-05T05:25:52.644Z,10.00
2018-12-05T05:26:52.820Z,8.90
2018-12-05T05:27:53.001Z,9.40
2018-12-05T05:28:53.173Z,10.00
2018-12-05T05:29:53.357Z,10.40
2018-12-05T05:30:53.538Z,9.60
2018-12-05T05:31:53.724Z,11.50
2018-12-05T05:32:53.890Z,11.60
2018-12-05T05:33:54.071Z,11.90
2018-12-05T05:34:54.245Z,10.00
2018-12-05T05:35:54.443Z,10.70
2018-12-05T05:36:54.613Z,11.50
2018-12-05T05:37:54.790Z,10.40
2018-12-05T05:38:54.967Z,10.80
2018-12-05T05:39:55.145Z,11.70
2018-12-05T05:40:55.318Z,13.00
2018-12-05T05:41:55.495Z,14.40
2018-12-05T05:42:55.680Z,13.20
2018-12-05T05:43:55.857Z,12.20
2018-12-05T05:44:56.047Z,13.30
2018-12-05T05:45:56.235Z,12.20
2018-12-05T05:46:56.409Z,11.40
2018-12-05T05:47:56.592Z,12.20
2018-12-05T05:48:56.769Z,13.90
2018-12-05T05:49:56.949Z,13.70
2018-12-05T05:50:57.133Z,12.10
2018-12-05T05:51:57.306Z,11.10
2018-12-05T05:52:57.483Z,11.40
2018-12-05T05:53:57.662Z,11.60
2018-12-05T05:54:57.839Z,10.80
2018-12-05T05:55:58.019Z,11.00
2018-12-05T05:56:58.196Z,11.80
2018-12-05T05:57:58.429Z,10.00
2018-12-05T05:58:58.565Z,10.10
2018-12-05T05:59:58.744Z,10.70
2018-12-05T06:00:58.926Z,10.20
2018-12-05T06:01:59.113Z,10.50
2018-12-05T06:02:59.289Z,10.70
2018-12-05T06:03:59.465Z,12.00
2018-12-05T06:04:59.641Z,9.90
2018-12-05T06:05:59.824Z,11.60
2018-12-05T06:07:00.001Z,12.00
2018-12-05T06:08:00.178Z,11.10
2018-12-05T06:09:00.358Z,10.30
2018-12-05T06:10:00.541Z,10.30
2018-12-05T06:11:00.714Z,9.70
2018-12-05T06:12:00.890Z,10.00
2018-12-05T06:13:01.140Z,10.30
2018-12-05T06:14:01.244Z,10.70
2018-12-05T06:15:01.429Z,10.50
2018-12-05T06:16:01.606Z,9.90
2018-12-05T06:17:01.783Z,9.90
2018-12-05T06:18:01.963Z,11.50
2018-12-05T06:19:02.141Z,9.10
2018-12-05T06:20:02.322Z,10.30
2018-12-05T06:21:02.498Z,11.90
2018-12-05T06:22:02.675Z,10.40
2018-12-05T06:23:02.856Z,11.30
2018-12-05T06:24:03.040Z,11.30
2018-12-05T06:25:03.224Z,10.10
2018-12-05T06:26:03.396Z,11.40
2018-12-05T06:27:03.577Z,12.10
2018-12-05T06:28:03.746Z,11.70
2018-12-05T06:29:03.937Z,11.00
2018-12-05T06:30:04.114Z,10.10
2018-12-05T06:31:04.292Z,12.00
2018-12-05T06:32:04.472Z,11.40
2018-12-05T06:33:04.653Z,10.60
2018-12-05T06:34:04.830Z,10.70
2018-12-05T06:35:05.015Z,11.20
2018-12-05T06:36:05.194Z,11.20
2018-12-05T06:37:05.438Z,11.00
2018-12-05T06:38:05.583Z,11.10
2018-12-05T06:39:05.758Z,10.20
2018-12-05T06:40:05.941Z,11.20
2018-12-05T06:41:06.114Z,11.00
2018-12-05T06:42:06.299Z,10.20
2018-12-05T06:43:06.474Z,10.50
2018-12-05T06:44:06.655Z,15.60
2018-12-05T06:45:06.832Z,15.90
2018-12-05T06:46:07.094Z,19.10
2018-12-05T06:47:07.187Z,15.60
2018-12-05T06:48:07.368Z,12.90
2018-12-05T06:49:07.548Z,14.10
2018-12-05T06:50:07.725Z,13.00
2018-12-05T06:51:07.903Z,18.10
2018-12-05T06:52:08.090Z,13.10
2018-12-05T06:53:08.271Z,15.30
2018-12-05T06:54:08.453Z,13.20
2018-12-05T06:55:08.636Z,12.90
2018-12-05T06:56:08.815Z,11.00
2018-12-05T06:57:09.003Z,11.80
2018-12-05T06:58:09.179Z,12.20
2018-12-05T06:59:09.358Z,12.60
2018-12-05T07:00:09.537Z,12.30
2018-12-05T07:01:09.715Z,12.50
2018-12-05T07:02:09.893Z,12.60
2018-12-05T07:03:10.076Z,13.00
2018-12-05T07:04:10.253Z,14.60
2018-12-05T07:05:10.437Z,13.00
2018-12-05T07:06:10.611Z,11.00
2018-12-05T07:07:10.792Z,12.50
2018-12-05T07:08:10.969Z,11.80
2018-12-05T07:09:11.144Z,11.80
2018-12-05T07:10:11.339Z,10.90
2018-12-05T07:11:11.510Z,9.80
2018-12-05T07:12:11.690Z,11.40
2018-12-05T07:13:11.864Z,12.00
2018-12-05T07:14:12.047Z,11.50
2018-12-05T07:15:12.222Z,10.50
2018-12-05T07:16:12.402Z,10.10
2018-12-05T07:17:12.579Z,10.40
2018-12-05T07:18:12.760Z,10.50
2018-12-05T07:19:12.940Z,13.00
2018-12-05T07:20:13.121Z,10.70
2018-12-05T07:21:13.298Z,11.00
2018-12-05T07:22:13.471Z,12.90
2018-12-05T07:23:13.658Z,10.50
2018-12-05T07:24:13.852Z,9.40
2018-12-05T07:25:14.016Z,11.00
2018-12-05T07:26:14.197Z,10.60
2018-12-05T07:27:14.377Z,11.00
2018-12-05T07:28:14.560Z,12.40
2018-12-05T07:29:14.737Z,9.20
2018-12-05T07:30:14.919Z,10.30
2018-12-05T07:31:15.097Z,10.20
2018-12-05T07:32:15.277Z,10.40
2018-12-05T07:33:15.454Z,9.60
2018-12-05T07:34:15.638Z,9.60
2018-12-05T07:35:15.812Z,9.80
2018-12-05T07:36:15.987Z,10.90
2018-12-05T07:37:16.168Z,10.50
2018-12-05T07:38:19.450Z,11.90
2018-12-05T07:39:16.526Z,17.70
2018-12-05T07:40:16.708Z,13.90
2018-12-05T07:41:16.884Z,14.90
2018-12-05T07:42:17.066Z,14.30
2018-12-05T07:43:17.243Z,15.20
2018-12-05T07:44:17.427Z,13.50
2018-12-05T07:45:17.610Z,13.00
2018-12-05T07:46:17.795Z,12.80
2018-12-05T07:47:17.962Z,10.70
2018-12-05T07:48:18.143Z,10.50
2018-12-05T07:49:18.321Z,10.40
2018-12-05T07:50:18.501Z,11.80
2018-12-05T07:51:18.674Z,13.90
2018-12-05T07:52:18.855Z,15.50
2018-12-05T07:53:19.037Z,15.70
2018-12-05T07:54:19.214Z,15.80
2018-12-05T07:55:19.389Z,18.80
2018-12-05T07:56:19.572Z,18.00
2018-12-05T07:57:19.750Z,15.80
2018-12-05T07:58:19.927Z,20.90
2018-12-05T07:59:20.106Z,16.60
2018-12-05T08:00:20.290Z,17.70
2018-12-05T08:01:20.470Z,13.40
2018-12-05T08:02:20.658Z,9.90
2018-12-05T08:03:20.834Z,8.50
2018-12-05T08:04:21.011Z,10.50
2018-12-05T08:05:21.191Z,15.30
2018-12-05T08:06:21.369Z,20.80
2018-12-05T08:07:21.545Z,18.20
2018-12-05T08:08:21.721Z,19.20
2018-12-05T08:09:21.898Z,16.30
2018-12-05T08:10:22.081Z,16.70
2018-12-05T08:11:22.265Z,19.40
2018-12-05T08:12:22.438Z,16.40
2018-12-05T08:13:22.614Z,10.20
2018-12-05T08:14:22.794Z,10.40
2018-12-05T08:15:22.971Z,13.50
2018-12-05T08:16:23.152Z,15.10
2018-12-05T08:17:23.330Z,13.30
2018-12-05T08:18:23.508Z,14.50
2018-12-05T08:19:23.694Z,14.50
2018-12-05T08:20:23.884Z,17.00
2018-12-05T08:21:24.091Z,14.80
2018-12-05T08:22:24.239Z,15.70
2018-12-05T08:23:24.428Z,11.60
2018-12-05T08:24:24.601Z,13.70
2018-12-05T08:25:24.785Z,18.70
2018-12-05T08:26:24.976Z,16.50
2018-12-05T08:27:25.149Z,12.50
2018-12-05T08:28:25.328Z,14.40
2018-12-05T08:29:25.515Z,16.30
2018-12-05T08:30:25.693Z,16.70
2018-12-05T08:31:25.868Z,13.80
2018-12-05T08:32:26.055Z,14.60
2018-12-05T08:33:26.238Z,12.70
2018-12-05T08:34:26.412Z,11.40
2018-12-05T08:35:26.592Z,10.50
2018-12-05T08:36:26.775Z,17.60
2018-12-05T08:37:26.953Z,16.90
2018-12-05T08:38:27.135Z,14.40
2018-12-05T08:39:27.313Z,16.00
2018-12-05T08:40:27.501Z,19.30
2018-12-05T08:41:27.677Z,25.90
2018-12-05T08:42:27.869Z,18.30
2018-12-05T08:43:28.047Z,12.00
2018-12-05T08:44:28.221Z,8.40
2018-12-05T08:45:28.399Z,11.20
2018-12-05T08:46:28.579Z,13.30
2018-12-05T08:47:33.620Z,19.20
2018-12-05T08:48:28.944Z,14.40
2018-12-05T08:49:29.124Z,9.70
2018-12-05T08:50:29.310Z,9.10
2018-12-05T08:51:29.483Z,9.10
2018-12-05T08:52:29.667Z,13.90
2018-12-05T08:53:29.843Z,11.50
2018-12-05T08:54:30.037Z,8.80
2018-12-05T08:55:30.220Z,8.40
2018-12-05T08:56:30.395Z,8.90
2018-12-05T08:57:30.577Z,8.80
2018-12-05T08:58:30.760Z,7.70
2018-12-05T08:59:30.939Z,7.60
2018-12-05T09:00:31.120Z,8.20
2018-12-05T09:01:31.301Z,7.70
2018-12-05T09:02:31.479Z,7.50
2018-12-05T09:03:31.661Z,8.30
2018-12-05T09:04:31.849Z,8.60
2018-12-05T09:05:32.022Z,7.80
2018-12-05T09:06:32.205Z,8.00
2018-12-05T09:07:32.381Z,8.20
2018-12-05T09:08:32.572Z,8.20
2018-12-05T09:09:32.748Z,7.60
2018-12-05T09:10:32.938Z,7.40
2018-12-05T09:11:33.117Z,7.40
2018-12-05T09:12:33.297Z,7.30
2018-12-05T09:13:33.476Z,7.30
2018-12-05T09:14:33.649Z,7.00
2018-12-05T09:15:33.837Z,7.00
2018-12-05T09:16:34.023Z,7.60
2018-12-05T09:17:34.209Z,6.90
2018-12-05T09:18:34.388Z,7.30
2018-12-05T09:19:34.572Z,7.40
2018-12-05T09:20:34.768Z,6.90
2018-12-05T09:21:34.948Z,7.10
2018-12-05T09:22:41.253Z,7.00
2018-12-05T09:23:35.313Z,7.30
2018-12-05T09:24:35.493Z,7.00
2018-12-05T09:25:35.678Z,7.40
2018-12-05T09:26:35.854Z,7.90
2018-12-05T09:27:36.037Z,8.30
2018-12-05T09:28:36.219Z,7.60
2018-12-05T09:29:36.398Z,8.40
2018-12-05T09:30:36.577Z,8.00
2018-12-05T09:31:36.770Z,7.50
2018-12-05T09:32:36.945Z,7.80
2018-12-05T09:33:37.121Z,8.10
2018-12-05T09:34:37.299Z,8.00
2018-12-05T09:35:37.481Z,7.80
2018-12-05T09:36:37.742Z,8.10
2018-12-05T09:37:37.938Z,8.20
2018-12-05T09:38:38.088Z,13.30
2018-12-05T09:39:38.273Z,15.70
2018-12-05T09:40:38.357Z,19.80
2018-12-05T09:41:38.532Z,18.60
2018-12-05T09:42:39.696Z,9.30
2018-12-05T09:43:38.897Z,10.20
2018-12-05T09:44:39.079Z,9.10
2018-12-05T09:45:39.258Z,8.80
2018-12-05T09:46:39.440Z,8.90
2018-12-05T09:47:39.620Z,8.90
2018-12-05T09:48:39.809Z,10.00
2018-12-05T09:49:39.984Z,11.10
2018-12-05T09:50:40.171Z,11.70
2018-12-05T09:51:40.348Z,12.00
2018-12-05T09:52:40.532Z,13.60
2018-12-05T09:53:40.724Z,9.80
2018-12-05T09:54:40.894Z,10.30
2018-12-05T09:55:41.083Z,17.20
2018-12-05T09:56:41.262Z,11.00
2018-12-05T09:57:41.442Z,12.40
2018-12-05T09:58:41.622Z,13.90
2018-12-05T09:59:41.808Z,17.00
2018-12-05T10:00:41.985Z,16.40
2018-12-05T10:01:42.168Z,14.90
2018-12-05T10:02:42.355Z,15.80
2018-12-05T10:03:42.538Z,14.50
2018-12-05T10:04:42.719Z,14.00
2018-12-05T10:05:42.901Z,13.90
2018-12-05T10:06:43.080Z,18.90
2018-12-05T10:07:43.269Z,17.90
2018-12-05T10:08:43.447Z,16.40
2018-12-05T10:09:43.652Z,15.40
2018-12-05T10:10:43.816Z,13.50
2018-12-05T10:11:43.990Z,13.40
2018-12-05T10:12:44.167Z,11.60
2018-12-05T10:13:44.342Z,20.70
2018-12-05T10:14:44.550Z,12.40
2018-12-05T10:15:44.731Z,14.50
2018-12-05T10:16:44.910Z,11.60
2018-12-05T10:17:45.093Z,15.20
2018-12-05T10:18:45.275Z,15.90
2018-12-05T10:19:45.454Z,15.00
2018-12-05T10:20:45.634Z,12.00
2018-12-05T10:21:45.813Z,12.70
2018-12-05T10:22:46.012Z,12.20
2018-12-05T10:23:46.175Z,11.90
2018-12-05T10:24:46.363Z,13.00
2018-12-05T10:25:46.537Z,11.40
2018-12-05T10:26:46.717Z,11.50
2018-12-05T10:27:46.898Z,11.20
2018-12-05T10:28:47.089Z,11.60
2018-12-05T10:29:47.275Z,11.00
2018-12-05T10:30:47.456Z,11.00
2018-12-05T10:31:47.635Z,11.50
2018-12-05T10:32:47.826Z,11.60
2018-12-05T10:33:48.011Z,12.60
2018-12-05T10:34:48.190Z,12.90
2018-12-05T10:35:48.384Z,11.30
2018-12-05T10:36:48.552Z,11.10
2018-12-05T10:37:48.823Z,12.40
2018-12-05T10:38:48.925Z,12.30
2018-12-05T10:39:49.105Z,12.50
2018-12-05T10:40:49.289Z,12.80
2018-12-05T10:41:49.466Z,12.60
2018-12-05T10:42:49.647Z,12.20
2018-12-05T10:43:49.826Z,11.80
2018-12-05T10:44:50.011Z,12.10
2018-12-05T10:45:50.189Z,11.90
2018-12-05T10:46:50.369Z,12.90
2018-12-05T10:47:50.550Z,12.30
2018-12-05T10:48:50.742Z,11.70
2018-12-05T10:49:50.911Z,12.10
2018-12-05T10:50:51.088Z,13.80
2018-12-05T10:51:51.270Z,12.00
2018-12-05T10:52:51.444Z,11.70
2018-12-05T10:53:51.625Z,12.30
2018-12-05T10:54:51.805Z,11.20
2018-12-05T10:55:51.999Z,12.10
2018-12-05T10:56:52.161Z,14.10
2018-12-05T10:57:52.346Z,13.80
2018-12-05T10:58:52.520Z,13.40
2018-12-05T10:59:52.704Z,13.20
2018-12-05T11:00:52.882Z,12.20
2018-12-05T11:01:53.065Z,12.00
2018-12-05T11:02:53.247Z,12.30
2018-12-05T11:03:53.430Z,13.20
2018-12-05T11:04:53.612Z,12.00
2018-12-05T11:05:53.793Z,13.00
2018-12-05T11:06:53.977Z,15.10
2018-12-05T11:07:54.151Z,16.80
2018-12-05T11:08:54.344Z,12.70
2018-12-05T11:09:54.531Z,12.00
2018-12-05T11:10:54.714Z,11.70
2018-12-05T11:11:54.893Z,12.00
2018-12-05T11:12:55.073Z,12.20
2018-12-05T11:13:55.259Z,12.20
2018-12-05T11:14:55.446Z,12.50
2018-12-05T11:15:55.623Z,12.50
2018-12-05T11:16:55.804Z,12.70
2018-12-05T11:17:55.982Z,12.60
2018-12-05T11:18:56.161Z,12.40
2018-12-05T11:19:56.342Z,13.30
2018-12-05T11:20:56.522Z,12.80
2018-12-05T11:21:56.702Z,12.80
2018-12-05T11:22:56.883Z,14.50
2018-12-05T11:23:57.066Z,13.90
2018-12-05T11:24:57.246Z,13.80
2018-12-05T11:25:57.422Z,13.70
2018-12-05T11:26:57.607Z,13.90
2018-12-05T11:27:57.793Z,12.40
2018-12-05T11:28:57.974Z,13.00
2018-12-05T11:29:58.153Z,12.80
2018-12-05T11:30:58.336Z,12.00
2018-12-05T11:31:58.522Z,13.60
2018-12-05T11:32:58.705Z,12.10
2018-12-05T11:33:58.887Z,12.80
2018-12-05T11:34:59.070Z,13.00
2018-12-05T11:35:59.254Z,12.20
2018-12-05T11:36:59.438Z,11.90
2018-12-05T11:37:59.617Z,12.30
2018-12-05T11:38:59.799Z,12.40
2018-12-05T11:39:59.978Z,12.60
2018-12-05T11:41:00.158Z,11.90
2018-12-05T11:42:00.342Z,12.70
2018-12-05T11:43:00.524Z,11.60
2018-12-05T11:44:00.704Z,11.70
2018-12-05T11:45:00.883Z,11.60
2018-12-05T11:46:01.069Z,12.50
2018-12-05T11:47:01.249Z,11.60
2018-12-05T11:48:01.420Z,12.70
2018-12-05T11:49:02.491Z,12.60
2018-12-05T11:50:01.770Z,12.60
2018-12-05T11:51:01.954Z,11.70
2018-12-05T11:52:02.137Z,11.80
2018-12-05T11:53:02.328Z,12.10
2018-12-05T11:54:02.508Z,11.90
2018-12-05T11:55:02.688Z,11.80
2018-12-05T11:56:02.873Z,12.40
2018-12-05T11:57:03.053Z,12.30
2018-12-05T11:58:03.234Z,12.70
2018-12-05T11:59:03.419Z,12.80
2018-12-05T12:00:03.595Z,12.40
2018-12-05T12:01:03.777Z,12.30
2018-12-05T12:02:03.960Z,12.50
2018-12-05T12:03:04.145Z,12.50
2018-12-05T12:04:04.324Z,11.70
2018-12-05T12:05:04.504Z,10.70
2018-12-05T12:06:04.686Z,12.10
2018-12-05T12:07:04.878Z,10.40
2018-12-05T12:08:05.059Z,10.90
2018-12-05T12:09:05.239Z,10.70
2018-12-05T12:10:05.418Z,10.90
2018-12-05T12:11:05.603Z,11.60
2018-12-05T12:12:05.782Z,11.40
2018-12-05T12:13:05.975Z,9.30
2018-12-05T12:14:06.150Z,9.30
2018-12-05T12:15:06.338Z,9.10
2018-12-05T12:16:06.520Z,9.50
2018-12-05T12:17:06.699Z,8.70
2018-12-05T12:18:06.890Z,8.70
2018-12-05T12:19:07.063Z,9.00
2018-12-05T12:20:07.248Z,9.60
2018-12-05T12:21:07.428Z,10.20
2018-12-05T12:22:07.612Z,10.10
2018-12-05T12:23:07.795Z,9.60
2018-12-05T12:24:07.987Z,9.00
2018-12-05T12:25:08.167Z,8.60
2018-12-05T12:26:08.343Z,8.40
2018-12-05T12:27:08.527Z,9.10
2018-12-05T12:28:08.710Z,9.30
2018-12-05T12:29:08.891Z,8.90
2018-12-05T12:30:15.714Z,9.50
2018-12-05T12:31:09.265Z,10.20
2018-12-05T12:32:09.457Z,11.10
2018-12-05T12:33:09.644Z,10.60
2018-12-05T12:34:09.824Z,11.20
2018-12-05T12:35:10.005Z,10.70
2018-12-05T12:36:10.198Z,10.60
2018-12-05T12:37:10.382Z,10.00
2018-12-05T12:38:10.570Z,9.30
2018-12-05T12:39:10.752Z,9.90
2018-12-05T12:40:10.940Z,10.20
2018-12-05T12:41:11.123Z,10.00
2018-12-05T12:42:11.306Z,9.60
2018-12-05T12:43:11.491Z,9.80
2018-12-05T12:44:11.681Z,9.10
2018-12-05T12:45:11.858Z,8.90
2018-12-05T12:46:12.051Z,9.70
2018-12-05T12:47:12.235Z,8.40
2018-12-05T12:48:12.410Z,9.10
2018-12-05T12:49:12.593Z,7.90
2018-12-05T12:50:12.784Z,8.30
2018-12-05T12:51:12.969Z,8.60
2018-12-05T12:52:13.157Z,8.70
2018-12-05T12:53:13.341Z,8.00
2018-12-05T12:54:13.524Z,7.80
2018-12-05T12:55:13.703Z,8.00
2018-12-05T12:56:13.884Z,8.40
2018-12-05T12:57:14.065Z,7.80
2018-12-05T12:58:14.248Z,8.80
2018-12-05T12:59:14.428Z,9.90
2018-12-05T13:00:14.611Z,11.70
2018-12-05T13:01:14.795Z,12.40
2018-12-05T13:02:14.981Z,12.30
2018-12-05T13:03:15.175Z,12.20
2018-12-05T13:04:15.360Z,12.50
2018-12-05T13:05:15.543Z,12.60
2018-12-05T13:06:15.720Z,11.10
2018-12-05T13:07:15.903Z,12.10